Time;durP1;ratioP1;P1;durP2;ratioP2;P2;SDS_P1;SDS_P2;PMS_P1;PMS_P2;Temp;Humidity;BMP_temperature;BMP_pressure;BME280_temperature;BME280_humidity;BME280_pressure;Samples;Min_cycle;Max_cycle;Signal;HPM_P1;HPM_P2
2022/12/25 00:01:30;;;;;;;34.95;11.52;;;;;;;9.05;76.56;99753.88;5031091;28;20057;-78
2022/12/25 00:03:57;;;;;;;32.70;11.10;;;;;;;9.05;76.40;99756.53;5030958;28;20108;-78
2022/12/25 00:06:24;;;;;;;41.53;11.82;;;;;;;9.06;76.36;99760.88;5030724;28;20049;-78
2022/12/25 00:08:51;;;;;;;31.70;10.68;;;;;;;9.07;76.23;99754.69;5030490;28;20057;-78
2022/12/25 00:11:18;;;;;;;32.33;10.43;;;;;;;9.08;76.27;99755.53;5030854;28;20100;-78
2022/12/25 00:13:46;;;;;;;35.17;11.50;;;;;;;9.10;76.58;99758.91;5030836;28;20115;-78
2022/12/25 00:16:16;;;;;;;37.28;10.88;;;;;;;9.10;76.66;99764.16;5030549;28;20053;-78
2022/12/25 00:18:43;;;;;;;34.97;10.45;;;;;;;9.13;76.59;99766.66;5030462;28;20544;-78
2022/12/25 00:21:09;;;;;;;31.58;11.05;;;;;;;9.15;76.68;99772.66;5030575;28;20093;-78
2022/12/25 00:23:36;;;;;;;40.22;11.57;;;;;;;9.17;76.68;99769.97;5030728;28;20049;-78
2022/12/25 00:26:09;;;;;;;32.67;11.32;;;;;;;9.19;76.82;99770.75;5030463;28;20054;-78
2022/12/25 00:28:35;;;;;;;32.70;10.77;;;;;;;9.23;76.98;99767.00;5030437;28;20119;-79
2022/12/25 00:31:07;;;;;;;37.13;11.73;;;;;;;9.24;76.85;99766.94;5012943;28;20049;-78
2022/12/25 00:33:38;;;;;;;29.42;10.77;;;;;;;9.25;76.35;99760.78;5012829;28;20053;-78
2022/12/25 00:36:06;;;;;;;36.63;11.23;;;;;;;9.30;76.50;99755.28;5030258;28;20049;-78
2022/12/25 00:38:34;;;;;;;28.40;9.85;;;;;;;9.34;76.57;99753.31;5029521;28;20058;-78
2022/12/25 00:41:05;;;;;;;27.98;10.85;;;;;;;9.32;76.27;99742.91;5030350;28;20068;-78
2022/12/25 00:43:31;;;;;;;31.70;11.32;;;;;;;9.34;76.40;99748.94;5030396;28;20061;-78
2022/12/25 00:46:00;;;;;;;33.22;11.07;;;;;;;9.34;76.10;99746.31;5030104;28;20099;-79
2022/12/25 00:48:28;;;;;;;27.30;10.55;;;;;;;9.33;75.95;99739.34;5030082;28;20049;-79
2022/12/25 00:50:56;;;;;;;30.60;10.50;;;;;;;9.33;75.98;99728.84;5024470;28;20058;-78
2022/12/25 00:53:23;;;;;;;30.92;10.35;;;;;;;9.32;75.82;99737.66;5009473;28;20054;-78
2022/12/25 00:55:55;;;;;;;30.55;10.50;;;;;;;9.30;75.53;99720.28;5009874;28;20054;-78
2022/12/25 00:58:22;;;;;;;28.05;9.65;;;;;;;9.29;75.54;99721.19;5009911;28;20065;-78
2022/12/25 01:00:49;;;;;;;31.08;9.75;;;;;;;9.28;75.40;99735.25;5020958;28;20057;-78
2022/12/25 01:03:16;;;;;;;28.88;9.63;;;;;;;9.23;75.25;99741.59;5030233;28;20127;-78
2022/12/25 01:05:44;;;;;;;23.83;9.23;;;;;;;9.20;75.18;99744.38;5030003;28;20531;-78
2022/12/25 01:08:10;;;;;;;31.23;9.57;;;;;;;9.18;75.29;99741.00;5029796;28;20107;-78
2022/12/25 01:10:36;;;;;;;24.30;9.30;;;;;;;9.15;75.56;99725.38;5030157;28;20092;-78
2022/12/25 01:13:03;;;;;;;27.63;10.05;;;;;;;9.12;75.77;99723.78;5030491;28;20111;-78
2022/12/25 01:15:29;;;;;;;29.70;10.05;;;;;;;9.10;75.71;99725.66;5029779;28;20053;-78
2022/12/25 01:17:55;;;;;;;26.35;9.07;;;;;;;9.09;75.64;99723.09;5029926;28;20545;-78
2022/12/25 01:20:22;;;;;;;30.08;9.20;;;;;;;9.07;75.71;99735.44;5029811;28;20061;-78
2022/12/25 01:22:48;;;;;;;25.33;8.25;;;;;;;9.06;75.90;99737.22;5029960;28;20053;-78
2022/12/25 01:25:14;;;;;;;25.95;9.43;;;;;;;9.06;75.94;99739.00;5029722;28;20192;-78
2022/12/25 01:27:41;;;;;;;29.40;9.25;;;;;;;9.05;75.96;99739.94;5029573;28;20085;-78
2022/12/25 01:30:08;;;;;;;25.67;9.55;;;;;;;9.04;75.96;99752.19;5029923;28;20055;-78
2022/12/25 01:32:34;;;;;;;28.77;9.18;;;;;;;9.04;76.32;99754.00;5030006;28;20054;-78
2022/12/25 01:35:01;;;;;;;27.83;8.90;;;;;;;9.03;76.41;99747.88;5029843;28;20108;-78
2022/12/25 01:37:27;;;;;;;26.17;8.93;;;;;;;9.03;76.40;99742.63;5029593;28;20100;-78
2022/12/25 01:39:53;;;;;;;31.55;8.93;;;;;;;9.04;76.13;99754.00;5029419;28;20656;-78
2022/12/25 01:42:22;;;;;;;28.10;10.32;;;;;;;9.03;76.04;99755.75;5029455;28;20057;-78
2022/12/25 01:44:49;;;;;;;29.10;8.90;;;;;;;9.04;76.11;99746.94;5012311;28;20146;-78
2022/12/25 01:47:17;;;;;;;25.58;8.95;;;;;;;9.03;75.94;99745.25;5029371;28;20104;-78
2022/12/25 01:52:23;;;;;;;33.80;8.90;;;;;;;9.03;76.24;99752.28;5027372;28;20084;-84
2022/12/25 01:54:56;;;;;;;26.38;8.60;;;;;;;9.03;76.47;99750.50;5033437;28;20049;-85
2022/12/25 01:57:27;;;;;;;35.85;10.35;;;;;;;9.05;76.98;99750.44;5023522;28;20561;-84
2022/12/25 01:59:56;;;;;;;37.95;9.02;;;;;;;9.07;77.09;99752.06;5033152;28;20080;-84
2022/12/25 02:02:23;;;;;;;31.60;8.93;;;;;;;9.12;77.26;99759.69;5041648;28;20459;-84
2022/12/25 02:04:56;;;;;;;27.50;8.57;;;;;;;9.14;77.17;99757.84;5052619;28;20052;-83
2022/12/25 02:07:33;;;;;;;19.30;8.05;;;;;;;9.19;77.04;99747.13;5053835;28;20059;-84
2022/12/25 02:10:00;;;;;;;26.42;9.43;;;;;;;9.22;76.99;99742.53;5029453;28;20057;-85
2022/12/25 02:12:31;;;;;;;30.95;9.13;;;;;;;9.25;77.05;99737.13;5040989;28;20061;-84
2022/12/25 02:15:02;;;;;;;22.75;8.13;;;;;;;9.29;76.84;99736.97;5033862;28;20057;-84
2022/12/25 02:17:57;;;;;;;28.63;8.27;;;;;;;9.31;76.55;99745.63;5030855;28;20057;-84
2022/12/25 02:20:54;;;;;;;19.98;6.88;;;;;;;9.32;76.35;99745.53;5042199;28;20057;-83
2022/12/25 02:23:39;;;;;;;29.48;8.02;;;;;;;9.38;76.58;99752.22;5036532;28;20057;-84
2022/12/25 02:26:45;;;;;;;29.00;8.13;;;;;;;9.38;76.42;99758.34;5033487;28;20064;-84
2022/12/25 02:29:53;;;;;;;23.70;7.90;;;;;;;9.43;76.66;99750.25;4986100;28;20415;-84
2022/12/25 02:32:27;;;;;;;20.92;7.20;;;;;;;9.51;76.86;99750.69;5020272;28;20053;-84
2022/12/25 02:35:04;;;;;;;25.30;8.10;;;;;;;9.54;76.65;99740.94;5015624;28;20053;-84
2022/12/25 02:37:39;;;;;;;20.67;7.63;;;;;;;9.59;77.09;99745.03;5015325;28;20058;-84
2022/12/25 02:40:24;;;;;;;17.20;6.25;;;;;;;9.59;76.54;99741.53;5033236;28;20057;-84
2022/12/25 03:11:29;;;;;;;18.35;6.70;;;;;;;9.85;75.95;99747.16;5032433;28;20144;-84
2022/12/25 03:11:44;;;;;;;;;;;;;;;9.89;75.62;99744.31;5032978;28;20057;-83
2022/12/25 03:16:58;;;;;;;23.30;5.80;;;;;;;9.94;76.21;99740.56;5032106;28;20053;-84
2022/12/25 03:28:07;;;;;;;18.20;5.70;;;;;;;9.98;76.35;99735.03;5032147;28;20061;-84
2022/12/25 03:31:11;;;;;;;20.60;6.22;;;;;;;9.99;76.00;99725.38;5032136;28;20085;-84
2022/12/25 03:38:08;;;;;;;12.82;5.10;;;;;;;10.03;75.53;99727.75;5031923;28;19932;-84
2022/12/25 04:36:50;;;;;;;14.93;4.70;;;;;;;10.40;75.94;99681.91;4997612;28;20056;-84
2022/12/25 04:39:19;;;;;;;13.43;4.97;;;;;;;10.39;75.95;99674.94;5031005;28;20057;-84
2022/12/25 04:41:46;;;;;;;13.93;5.57;;;;;;;10.38;75.86;99671.47;5030905;28;20143;-84
2022/12/25 04:44:12;;;;;;;16.92;4.68;;;;;;;10.39;76.10;99664.44;5013390;28;20149;-84
2022/12/25 04:46:39;;;;;;;16.42;4.90;;;;;;;10.38;76.06;99666.19;5030516;28;20053;-84
2022/12/25 04:49:05;;;;;;;19.48;5.68;;;;;;;10.39;76.03;99674.94;5031056;28;20141;-84
2022/12/25 04:51:32;;;;;;;13.55;4.90;;;;;;;10.38;76.07;99673.22;5012974;28;20053;-84
2022/12/25 04:53:59;;;;;;;9.82;4.50;;;;;;;10.40;76.02;99681.91;5013341;28;20490;-84
2022/12/25 04:56:28;;;;;;;12.68;4.95;;;;;;;10.38;75.79;99683.75;5012959;28;20111;-85
2022/12/25 04:59:04;;;;;;;;;;;;;;;;;;;;;
2022/12/25 05:01:32;;;;;;;13.20;4.97;;;;;;;10.41;76.04;99683.59;5026811;28;20456;-83
2022/12/25 05:04:01;;;;;;;13.60;4.85;;;;;;;10.40;76.00;99684.53;5017299;28;20371;-83
2022/12/25 05:06:28;;;;;;;13.10;5.15;;;;;;;10.39;75.96;99688.09;5024505;28;20052;-83
2022/12/25 05:08:55;;;;;;;12.82;5.15;;;;;;;10.39;76.08;99696.00;5041428;28;20088;-83
2022/12/25 05:11:21;;;;;;;13.18;5.20;;;;;;;10.38;76.18;99697.78;5046528;28;20052;-83
2022/12/25 05:13:50;;;;;;;14.30;6.45;;;;;;;10.36;76.00;99702.25;5023215;28;20057;-82
2022/12/25 05:16:18;;;;;;;12.05;5.60;;;;;;;10.36;76.10;99702.25;5048559;28;20114;-83
2022/12/25 05:18:48;;;;;;;14.95;6.10;;;;;;;10.35;76.14;99705.00;5022239;28;20393;-83
2022/12/25 05:21:21;;;;;;;11.18;5.15;;;;;;;10.35;76.03;99699.75;5033491;28;20529;-83
2022/12/25 05:23:52;;;;;;;17.52;6.68;;;;;;;10.31;76.19;99701.69;5050080;28;20060;-82
2022/12/25 05:26:23;;;;;;;11.80;5.35;;;;;;;10.32;76.10;99692.00;5055542;28;20060;-82
2022/12/25 05:28:49;;;;;;;14.70;5.72;;;;;;;10.32;76.46;99676.22;5038921;28;20098;-82
2022/12/25 05:31:17;;;;;;;14.57;5.72;;;;;;;10.31;76.52;99678.00;5052922;28;20462;-82
2022/12/25 05:33:43;;;;;;;12.63;5.65;;;;;;;10.32;76.45;99673.59;5057139;28;20525;-82
2022/12/25 05:36:11;;;;;;;12.60;6.10;;;;;;;10.29;76.55;99672.81;5056494;28;20060;-81
2022/12/25 05:38:38;;;;;;;12.45;5.82;;;;;;;10.29;76.56;99680.72;5056372;28;20053;-82
2022/12/25 05:41:05;;;;;;;15.32;5.70;;;;;;;10.31;76.56;99678.00;5056582;28;20061;-82
2022/12/25 05:43:31;;;;;;;16.80;5.80;;;;;;;10.29;76.74;99662.31;5039120;28;20067;-83
2022/12/25 05:46:03;;;;;;;11.68;5.60;;;;;;;10.29;76.70;99672.00;5056624;28;20127;-82
2022/12/25 05:48:31;;;;;;;20.57;6.37;;;;;;;10.29;76.64;99677.25;5056578;28;20422;-82
2022/12/25 05:51:03;;;;;;;9.90;5.35;;;;;;;10.28;76.53;99676.41;5056481;28;20513;-82
2022/12/25 05:53:29;;;;;;;16.73;6.35;;;;;;;10.30;76.76;99677.16;5056527;28;20143;-82
2022/12/25 05:56:00;;;;;;;9.52;4.90;;;;;;;10.30;76.65;99663.16;5056617;28;20470;-82
2022/12/25 05:58:27;;;;;;;11.18;5.45;;;;;;;10.32;76.80;99668.34;5038687;28;20053;-82
2022/12/25 06:00:54;;;;;;;15.43;5.82;;;;;;;10.34;76.84;99671.72;5056422;28;20063;-83
2022/12/25 06:03:22;;;;;;;13.48;5.95;;;;;;;10.34;76.67;99667.31;5056432;28;20057;-82
2022/12/25 06:05:49;;;;;;;14.82;6.70;;;;;;;10.35;76.81;99665.53;5056437;28;20131;-83
2022/12/25 06:08:15;;;;;;;11.23;5.43;;;;;;;10.35;76.86;99649.75;5056442;28;20421;-82
2022/12/25 06:10:42;;;;;;;19.70;6.07;;;;;;;10.37;76.74;99647.88;5056517;28;20084;-83
2022/12/25 06:13:09;;;;;;;16.33;6.05;;;;;;;10.35;76.90;99642.69;5056420;28;20107;-83
2022/12/25 06:15:40;;;;;;;10.85;6.57;;;;;;;10.34;76.80;99643.63;5056348;28;20263;-82
2022/12/25 06:18:08;;;;;;;20.48;6.65;;;;;;;10.36;76.84;99640.91;5056141;28;20056;-83
2022/12/25 06:20:39;;;;;;;14.35;5.53;;;;;;;10.36;76.75;99647.00;5056192;28;20060;-83
2022/12/25 06:23:06;;;;;;;12.85;5.22;;;;;;;10.38;76.78;99650.41;5056139;28;20061;-83
2022/12/25 06:25:32;;;;;;;10.50;6.15;;;;;;;10.37;76.78;99642.59;5056179;28;20052;-83
2022/12/25 06:27:59;;;;;;;12.23;5.75;;;;;;;10.39;76.85;99651.28;5038418;28;20064;-83
2022/12/25 06:30:25;;;;;;;12.18;6.13;;;;;;;10.38;77.08;99645.16;5038510;28;20482;-83
2022/12/25 06:32:59;;;;;;;9.80;5.45;;;;;;;10.35;77.01;99640.06;5056321;28;20140;-83
2022/12/25 06:35:30;;;;;;;14.63;5.88;;;;;;;10.40;77.38;99645.06;5056280;28;20115;-83
2022/12/25 06:38:13;;;;;;;14.00;6.43;;;;;;;10.40;76.99;99652.97;5033874;28;20572;-83
2022/12/25 06:40:48;;;;;;;14.10;6.18;;;;;;;10.43;77.11;99639.59;5035210;28;20565;-83
2022/12/25 06:43:22;;;;;;;12.30;5.90;;;;;;;10.45;77.11;99643.03;5052743;28;20487;-83
2022/12/25 06:45:51;;;;;;;11.85;5.97;;;;;;;10.46;77.30;99639.47;5053117;28;20068;-83
2022/12/25 06:48:18;;;;;;;16.20;6.57;;;;;;;10.48;77.22;99634.97;5052947;28;20049;-82
2022/12/25 06:50:49;;;;;;;10.93;5.55;;;;;;;10.50;77.08;99629.63;5052779;28;20082;-83
2022/12/25 06:53:25;;;;;;;;;;;;;;;;;;;;;
2022/12/25 06:56:16;;;;;;;14.73;6.30;;;;;;;10.52;77.05;99635.63;5052599;28;20052;-83
2022/12/25 06:58:49;;;;;;;11.73;5.47;;;;;;;10.54;77.13;99626.69;5052688;28;20465;-83
2022/12/25 07:02:08;;;;;;;;;;;;;;;;;;;;;
2022/12/25 07:06:22;;;;;;;;;;;;;;;;;;;;;
2022/12/25 07:09:27;;;;;;;;;;;;;;;;;;;;;
2022/12/25 07:20:39;;;;;;;;;;;;;;;;;;;;;
2022/12/25 07:24:17;;;;;;;;;;;;;;;;;;;;;
2022/12/25 07:27:48;;;;;;;;;;;;;;;;;;;;;
2022/12/25 07:30:30;;;;;;;11.02;3.55;;;;;;;10.85;76.49;99597.72;5058621;23;20045;-79
2022/12/25 07:32:56;;;;;;;11.13;4.43;;;;;;;10.86;76.56;99607.28;5024400;28;20077;-79
2022/12/25 07:35:23;;;;;;;10.88;4.70;;;;;;;10.88;76.47;99620.38;5032379;28;20053;-79
2022/12/25 07:37:49;;;;;;;8.00;4.45;;;;;;;10.87;76.64;99611.59;5032130;28;20056;-79
2022/12/25 07:40:16;;;;;;;11.07;4.03;;;;;;;10.88;76.59;99608.03;5029698;28;20136;-80
2022/12/25 07:42:43;;;;;;;9.60;4.15;;;;;;;10.89;76.54;99601.00;5030043;28;20050;-78
2022/12/25 07:45:09;;;;;;;10.55;4.00;;;;;;;10.90;76.50;99598.25;5017896;28;20054;-78
2022/12/25 07:47:36;;;;;;;8.70;3.70;;;;;;;10.91;76.53;99580.66;5028120;28;20136;-77
2022/12/25 07:50:03;;;;;;;6.05;3.65;;;;;;;10.93;76.56;99577.03;5025917;28;20085;-78
2022/12/25 07:52:29;;;;;;;7.68;3.78;;;;;;;10.94;76.38;99589.25;5061372;23;20557;-79
2022/12/25 07:54:56;;;;;;;7.28;3.92;;;;;;;10.97;76.09;99589.97;5030767;28;20092;-79
2022/12/25 07:57:22;;;;;;;8.57;3.80;;;;;;;10.97;76.06;99585.56;5030723;28;20081;-78
2022/12/25 07:59:48;;;;;;;8.98;3.95;;;;;;;10.97;76.03;99584.72;5030916;28;20203;-79
2022/12/25 08:02:15;;;;;;;6.60;3.63;;;;;;;10.97;75.82;99587.34;5030662;28;20057;-79
2022/12/25 08:04:42;;;;;;;7.72;3.42;;;;;;;10.96;75.67;99586.50;5030629;28;20053;-79
2022/12/25 08:07:08;;;;;;;8.80;3.67;;;;;;;10.94;75.64;99593.66;5030294;28;20104;-79
2022/12/25 08:09:34;;;;;;;8.98;3.58;;;;;;;10.95;75.69;99600.59;5030676;28;20087;-79
2022/12/25 08:12:00;;;;;;;7.00;3.10;;;;;;;10.94;75.73;99601.53;5030565;28;20057;-79
2022/12/25 08:14:28;;;;;;;7.45;3.22;;;;;;;10.93;75.77;99600.72;5030518;28;20103;-79
2022/12/25 08:16:54;;;;;;;7.28;3.38;;;;;;;10.93;75.81;99611.25;5030142;28;20102;-79
2022/12/25 08:19:20;;;;;;;7.85;3.28;;;;;;;10.93;75.83;99605.13;5024792;28;20045;-79
2022/12/25 08:21:47;;;;;;;11.52;3.90;;;;;;;10.93;75.79;99605.13;5025090;28;20511;-80
2022/12/25 08:24:14;;;;;;;8.40;3.80;;;;;;;10.92;75.83;99592.91;5029986;28;20053;-79
2022/12/25 08:26:40;;;;;;;6.32;2.95;;;;;;;10.93;75.72;99578.78;5027157;28;20085;-79
2022/12/25 08:29:06;;;;;;;8.75;3.22;;;;;;;10.94;75.97;99586.59;5029957;28;20050;-79
2022/12/25 08:31:33;;;;;;;11.63;3.20;;;;;;;10.95;75.97;99595.34;5030036;28;20057;-79
2022/12/25 08:34:03;;;;;;;7.10;3.47;;;;;;;10.96;76.09;99599.69;5030022;28;20164;-79
2022/12/25 08:36:30;;;;;;;7.85;3.00;;;;;;;10.97;76.11;99588.19;5012314;28;20466;-79
2022/12/25 08:38:56;;;;;;;8.02;3.28;;;;;;;10.99;76.14;99604.75;5029723;28;20100;-79
2022/12/25 08:41:28;;;;;;;7.65;3.40;;;;;;;11.02;76.30;99615.09;5012989;28;20100;-79
2022/12/25 08:43:55;;;;;;;7.22;2.88;;;;;;;11.03;76.30;99615.97;5029296;28;20135;-79
2022/12/25 08:46:21;;;;;;;7.47;3.15;;;;;;;11.05;76.29;99603.53;5028527;28;20057;-79
2022/12/25 08:48:48;;;;;;;5.78;3.20;;;;;;;11.07;76.32;99613.03;5029703;28;20053;-79
2022/12/25 08:51:19;;;;;;;9.38;3.42;;;;;;;11.11;76.10;99613.69;5029745;28;20136;-79
2022/12/25 08:53:47;;;;;;;11.00;3.00;;;;;;;11.14;76.27;99602.13;5030201;28;20107;-79
2022/12/25 08:56:14;;;;;;;11.45;3.38;;;;;;;11.17;76.25;99613.31;5029774;28;20084;-79
2022/12/25 08:58:41;;;;;;;5.78;3.08;;;;;;;11.19;76.25;99621.97;5029511;28;20053;-79
2022/12/25 09:01:08;;;;;;;6.82;2.90;;;;;;;11.23;76.20;99627.03;5028837;28;20115;-78
2022/12/25 09:03:34;;;;;;;7.72;3.38;;;;;;;11.25;76.12;99625.16;5029638;28;20463;-79
2022/12/25 09:06:05;;;;;;;7.68;2.85;;;;;;;11.26;76.16;99625.09;5012066;28;20053;-79
2022/12/25 09:08:32;;;;;;;6.70;2.92;;;;;;;11.27;76.02;99621.50;5029505;28;20049;-78
2022/12/25 09:11:08;;;;;;;8.05;3.03;;;;;;;11.27;75.58;99621.50;5029640;28;20088;-78
2022/12/25 09:13:36;;;;;;;6.18;2.78;;;;;;;11.31;76.00;99609.81;5029331;28;20063;-78
2022/12/25 09:16:11;;;;;;;5.35;2.53;;;;;;;11.30;75.51;99610.78;5029567;28;20103;-79
2022/12/25 09:18:38;;;;;;;7.18;3.00;;;;;;;11.37;76.17;99605.09;5029458;28;20431;-79
2022/12/25 09:21:08;;;;;;;6.82;3.00;;;;;;;11.36;76.07;99596.34;5029496;28;20089;-78
2022/12/25 09:23:35;;;;;;;5.90;2.67;;;;;;;11.40;76.01;99575.94;5029633;28;20139;-78
2022/12/25 09:26:04;;;;;;;7.18;2.80;;;;;;;11.42;75.76;99568.75;5011499;28;20054;-79
2022/12/25 09:28:31;;;;;;;6.72;3.00;;;;;;;11.45;75.85;99558.03;5029581;28;20077;-78
2022/12/25 09:30:57;;;;;;;6.15;3.03;;;;;;;11.49;75.86;99563.94;5029471;28;20057;-78
2022/12/25 09:33:24;;;;;;;7.47;3.17;;;;;;;11.50;75.97;99577.03;5029540;28;20063;-78
2022/12/25 09:36:02;;;;;;;6.47;3.17;;;;;;;11.50;75.23;99571.75;5029242;28;20482;-78
2022/12/25 09:38:29;;;;;;;5.63;2.80;;;;;;;11.56;75.89;99560.81;5029088;28;20104;-78
2022/12/25 09:40:57;;;;;;;6.00;2.70;;;;;;;11.57;75.57;99554.59;5028961;28;20130;-78
2022/12/25 09:43:26;;;;;;;4.40;2.55;;;;;;;11.58;75.64;99550.16;5026886;28;20093;-78
2022/12/25 09:45:52;;;;;;;5.20;2.88;;;;;;;11.61;75.58;99557.88;5028473;28;20089;-78
2022/12/25 09:48:19;;;;;;;4.43;2.22;;;;;;;11.63;75.59;99560.41;5028776;28;20127;-78
2022/12/25 09:50:52;;;;;;;5.10;2.67;;;;;;;11.63;75.06;99557.78;5028851;28;20053;-79
2022/12/25 09:53:25;;;;;;;7.32;3.33;;;;;;;11.64;74.97;99568.22;5029164;28;20119;-78
2022/12/25 09:56:08;;;;;;;6.38;3.40;;;;;;;11.65;74.44;99582.25;5029449;28;20084;-79
2022/12/25 09:58:34;;;;;;;6.82;3.15;;;;;;;11.69;75.27;99584.59;5029152;28;20529;-79
2022/12/25 10:01:32;;;;;;;5.15;2.60;;;;;;;11.65;74.52;99575.19;5029216;28;20063;-79
2022/12/25 10:04:20;;;;;;;8.38;2.88;;;;;;;11.69;74.74;99576.69;5006072;28;20064;-79
2022/12/25 10:06:49;;;;;;;6.65;2.72;;;;;;;11.72;74.80;99565.09;5029130;28;20089;-79
2022/12/25 10:09:22;;;;;;;7.80;2.60;;;;;;;11.73;75.16;99554.44;5029142;28;20580;-79
2022/12/25 10:12:39;;;;;;;4.80;2.50;;;;;;;11.70;74.55;99549.38;5030989;28;20050;-79
2022/12/25 10:15:23;;;;;;;6.47;2.75;;;;;;;11.72;74.41;99563.31;4971353;28;20092;-79
2022/12/25 10:18:14;;;;;;;6.72;2.67;;;;;;;11.75;74.65;99562.25;4971358;28;20614;-79
2022/12/25 10:20:46;;;;;;;4.95;2.40;;;;;;;11.76;74.43;99573.63;5017717;28;20053;-78
2022/12/25 10:23:18;;;;;;;5.20;2.47;;;;;;;11.76;74.88;99571.84;5032853;28;20061;-78
2022/12/25 10:25:45;;;;;;;4.83;2.10;;;;;;;11.77;75.09;99572.72;5032631;28;20115;-78
2022/12/25 10:28:18;;;;;;;6.13;2.28;;;;;;;11.77;74.99;99563.00;5032659;28;20405;-78
2022/12/25 10:30:44;;;;;;;6.88;2.17;;;;;;;11.78;75.31;99551.50;5032423;28;20057;-79
2022/12/25 10:33:13;;;;;;;7.90;2.88;;;;;;;11.80;75.27;99559.31;5032689;28;20128;-78
2022/12/25 10:35:43;;;;;;;4.38;2.63;;;;;;;11.81;75.30;99574.22;5032313;28;20053;-78
2022/12/25 10:38:15;;;;;;;10.75;3.35;;;;;;;11.79;74.64;99563.75;5032266;28;20114;-79
2022/12/25 10:41:04;;;;;;;4.82;2.35;;;;;;;11.81;74.71;99547.84;5030746;28;20513;-78
2022/12/25 10:43:45;;;;;;;3.15;2.25;;;;;;;11.79;74.20;99547.94;5032121;28;20061;-79
2022/12/25 10:46:14;;;;;;;5.50;2.67;;;;;;;11.83;75.05;99540.66;5032299;28;20115;-79
2022/12/25 10:48:46;;;;;;;8.30;3.30;;;;;;;11.84;74.93;99547.63;5032066;28;20500;-79
2022/12/25 10:51:12;;;;;;;7.43;2.17;;;;;;;11.85;75.11;99541.41;5031946;28;20057;-79
2022/12/25 10:53:42;;;;;;;8.15;2.20;;;;;;;11.85;74.96;99529.06;5030274;28;20053;-79
2022/12/25 10:56:18;;;;;;;6.28;2.35;;;;;;;11.84;74.56;99532.66;5031825;28;20057;-79
2022/12/25 10:58:44;;;;;;;5.68;2.80;;;;;;;11.90;75.17;99525.28;5031828;28;20463;-79
2022/12/25 11:01:12;;;;;;;6.07;2.45;;;;;;;11.92;75.03;99520.75;5031904;28;20069;-79
2022/12/25 11:03:42;;;;;;;6.05;2.47;;;;;;;11.93;74.89;99535.63;5032012;28;20064;-79
2022/12/25 11:06:25;;;;;;;4.63;2.60;;;;;;;11.91;74.30;99521.69;5014133;28;20068;-79
2022/12/25 11:08:59;;;;;;;6.20;2.35;;;;;;;11.93;74.30;99520.63;5031721;28;20080;-79
2022/12/25 11:11:27;;;;;;;5.78;2.78;;;;;;;11.96;74.74;99532.78;5031645;28;20526;-79
2022/12/25 11:13:57;;;;;;;5.50;2.30;;;;;;;11.92;74.36;99511.03;5031800;28;20087;-79
2022/12/25 11:16:28;;;;;;;5.32;2.45;;;;;;;11.92;74.64;99513.66;5031602;28;20076;-79
2022/12/25 11:18:56;;;;;;;6.05;2.70;;;;;;;11.93;74.72;99509.25;5031706;28;20075;-78
2022/12/25 11:21:28;;;;;;;5.53;2.72;;;;;;;11.90;74.29;99499.75;5031850;28;20061;-78
2022/12/25 11:24:00;;;;;;;6.68;2.78;;;;;;;11.90;74.73;99499.75;5030995;28;20104;-78
2022/12/25 11:26:35;;;;;;;4.38;2.70;;;;;;;11.88;74.26;99503.44;5031367;28;21062;-78
2022/12/25 11:29:04;;;;;;;4.90;2.42;;;;;;;11.89;74.82;99494.56;5031698;28;20085;-78
2022/12/25 11:31:38;;;;;;;6.32;2.38;;;;;;;11.89;74.47;99481.38;5031930;28;20177;-77
2022/12/25 11:34:28;;;;;;;8.80;2.72;;;;;;;11.86;74.36;99487.72;5031905;28;20053;-79
2022/12/25 11:36:57;;;;;;;5.38;3.08;;;;;;;11.90;74.74;99473.38;5031209;28;20053;-79
2022/12/25 11:39:26;;;;;;;8.48;3.58;;;;;;;11.91;74.88;99468.94;5031194;28;20104;-78
2022/12/25 11:42:07;;;;;;;4.60;3.45;;;;;;;11.88;74.68;99464.72;5031341;28;20121;-78
2022/12/25 11:44:42;;;;;;;7.05;3.97;;;;;;;11.89;74.62;99462.94;4998991;28;20061;-78
2022/12/25 11:47:25;;;;;;;5.53;4.00;;;;;;;11.86;74.40;99448.16;5013540;28;20107;-79
2022/12/25 11:50:06;;;;;;;7.63;4.38;;;;;;;11.89;74.58;99439.19;5031154;28;20053;-78
2022/12/25 11:52:36;;;;;;;6.25;4.55;;;;;;;11.89;74.62;99431.28;5031104;28;20061;-79
2022/12/25 11:55:14;;;;;;;6.85;4.07;;;;;;;11.88;74.49;99429.59;5031053;28;20057;-79
2022/12/25 11:57:44;;;;;;;5.90;3.10;;;;;;;11.89;74.86;99431.28;5030982;28;20084;-79
2022/12/25 12:00:14;;;;;;;6.18;3.03;;;;;;;11.89;74.87;99426.00;5030758;28;20077;-79
2022/12/25 12:02:59;;;;;;;5.57;3.42;;;;;;;11.90;75.10;99430.31;5030796;28;20057;-79
2022/12/25 12:05:34;;;;;;;7.82;3.15;;;;;;;11.87;74.67;99426.09;5031089;28;21119;-79
2022/12/25 12:08:03;;;;;;;3.90;2.75;;;;;;;11.90;75.01;99422.41;5030777;28;20123;-79
2022/12/25 12:10:59;;;;;;;7.18;3.35;;;;;;;11.90;74.82;99417.13;5030597;28;20570;-79
2022/12/25 12:13:36;;;;;;;7.72;3.20;;;;;;;11.90;74.69;99417.13;5030907;28;20115;-79
2022/12/25 12:16:04;;;;;;;5.90;3.17;;;;;;;11.91;75.23;99408.25;5030634;28;20057;-79
2022/12/25 12:18:32;;;;;;;5.50;3.10;;;;;;;11.93;75.21;99419.56;5030256;28;20103;-78
2022/12/25 12:21:09;;;;;;;5.10;2.95;;;;;;;11.91;74.77;99417.03;5030290;28;20100;-79
2022/12/25 12:23:51;;;;;;;4.68;2.83;;;;;;;11.92;74.54;99407.34;5029405;28;20400;-79
2022/12/25 12:26:23;;;;;;;4.68;3.28;;;;;;;11.94;74.65;99390.47;5029205;28;20136;-79
2022/12/25 12:28:53;;;;;;;7.38;3.30;;;;;;;11.95;75.07;99391.28;5030186;28;20060;-79
2022/12/25 12:31:20;;;;;;;5.05;3.13;;;;;;;11.97;75.04;99389.41;5030238;28;20111;-78
2022/12/25 12:33:58;;;;;;;5.45;3.30;;;;;;;11.93;74.73;99382.66;5027570;28;20057;-78
2022/12/25 12:36:26;;;;;;;3.97;2.83;;;;;;;11.97;75.18;99377.03;5025987;28;20119;-79
2022/12/25 12:39:03;;;;;;;6.10;3.53;;;;;;;11.98;75.15;99376.09;4994850;28;20080;-78
2022/12/25 12:41:44;;;;;;;5.10;3.10;;;;;;;11.94;74.67;99374.63;5010655;28;20058;-78
2022/12/25 12:44:13;;;;;;;5.85;3.45;;;;;;;12.00;75.11;99373.34;5011018;28;20081;-79
2022/12/25 12:46:53;;;;;;;4.53;2.95;;;;;;;11.98;74.75;99367.34;5010470;28;20054;-79
2022/12/25 12:49:26;;;;;;;5.65;3.50;;;;;;;11.99;74.78;99350.56;5010612;28;20500;-79
2022/12/25 12:52:30;;;;;;;5.07;3.30;;;;;;;11.97;74.63;99340.09;5010505;28;20104;-79
2022/12/25 12:55:11;;;;;;;;;;;;;;;12.02;74.70;99337.16;5012281;28;20420;-78
2022/12/25 12:57:38;;;;;;;5.25;2.75;;;;;;;12.07;75.03;99350.06;5030158;28;19920;-78
2022/12/25 13:00:17;;;;;;;5.40;2.72;;;;;;;12.02;74.41;99344.22;5030006;28;20419;-78
2022/12/25 13:03:21;;;;;;;5.53;3.08;;;;;;;11.98;74.58;99328.63;5029961;28;20054;-78
2022/12/25 13:06:12;;;;;;;3.47;2.60;;;;;;;11.99;74.58;99308.34;5027098;28;20068;-79
2022/12/25 13:08:39;;;;;;;5.28;2.90;;;;;;;12.03;75.19;99312.47;5024445;28;20114;-79
2022/12/25 13:11:19;;;;;;;9.35;2.67;;;;;;;12.02;75.20;99302.88;5023921;28;20049;-79
2022/12/25 13:13:48;;;;;;;3.75;2.70;;;;;;;12.02;75.37;99288.81;5022539;28;20593;-79
2022/12/25 13:16:25;;;;;;;4.32;2.67;;;;;;;12.01;75.06;99297.69;5029773;28;20057;-79
2022/12/25 13:18:53;;;;;;;6.05;3.25;;;;;;;12.04;75.33;99290.41;5027932;28;20063;-84
2022/12/25 13:21:23;;;;;;;4.60;2.72;;;;;;;12.04;75.27;99293.03;5025374;28;20053;-79
2022/12/25 13:23:58;;;;;;;5.40;3.40;;;;;;;12.05;74.92;99294.78;5029538;28;20073;-80
2022/12/25 13:26:26;;;;;;;5.20;3.50;;;;;;;12.08;75.29;99293.72;5029389;28;20499;-79
2022/12/25 13:28:54;;;;;;;5.55;3.47;;;;;;;12.09;75.10;99285.69;5029573;28;20524;-79
2022/12/25 13:31:26;;;;;;;8.85;4.28;;;;;;;12.08;74.83;99302.44;5012015;28;20096;-77
2022/12/25 13:34:02;;;;;;;5.63;3.78;;;;;;;12.07;74.67;99290.22;5012099;28;20179;-79
2022/12/25 13:36:36;;;;;;;8.02;3.90;;;;;;;12.09;74.69;99290.97;5029603;28;20829;-79
2022/12/25 13:39:07;;;;;;;5.18;3.53;;;;;;;12.10;74.70;99290.00;5029769;28;20049;-79
2022/12/25 13:44:40;;;;;;;8.13;3.58;;;;;;;12.09;74.42;99293.63;5029596;28;20053;-79
2022/12/25 13:47:29;;;;;;;4.90;3.33;;;;;;;12.08;74.46;99296.34;5032311;28;20091;-79
2022/12/25 13:49:58;;;;;;;3.75;2.90;;;;;;;12.10;74.82;99292.66;5033565;28;20514;-79
2022/12/25 13:52:34;;;;;;;4.22;3.05;;;;;;;12.07;74.50;99289.41;5121775;23;20053;-80
2022/12/25 13:55:11;;;;;;;4.80;3.33;;;;;;;12.05;74.50;99281.59;5030457;28;20100;-79
2022/12/25 13:57:44;;;;;;;4.25;3.20;;;;;;;12.08;74.90;99272.63;5008134;28;20046;-78
2022/12/25 14:00:31;;;;;;;5.35;3.72;;;;;;;12.05;74.41;99263.13;5016594;28;20056;-79